createdAt,value
2023-03-26T00:01:33.647Z,8.18
2023-03-26T00:04:02.272Z,8.73
2023-03-26T00:06:34.936Z,10.48
2023-03-26T00:09:03.417Z,8.82
2023-03-26T00:11:31.799Z,9.18
2023-03-26T00:13:59.844Z,7.97
2023-03-26T00:16:29.953Z,10.05
2023-03-26T00:18:59.955Z,7.93
2023-03-26T00:21:30.350Z,9.60
2023-03-26T00:24:04.486Z,7.28
2023-03-26T00:26:33.768Z,6.97
2023-03-26T00:29:04.043Z,7.93
2023-03-26T00:31:32.825Z,8.05
2023-03-26T00:34:03.693Z,7.00
2023-03-26T00:36:32.332Z,6.95
2023-03-26T00:39:05.180Z,6.10
2023-03-26T00:41:37.037Z,5.40
2023-03-26T00:44:05.900Z,5.28
2023-03-26T00:46:33.907Z,5.38
2023-03-26T00:49:03.846Z,5.72
2023-03-26T00:51:33.906Z,5.35
2023-03-26T00:54:03.471Z,5.60
2023-03-26T00:56:31.530Z,5.22
2023-03-26T00:59:00.252Z,5.22
2023-03-26T01:01:30.627Z,5.22
2023-03-26T01:04:20.169Z,5.00
2023-03-26T01:06:48.777Z,4.47
2023-03-26T01:09:20.044Z,4.35
2023-03-26T01:11:49.923Z,4.13
2023-03-26T01:14:20.744Z,5.00
2023-03-26T01:16:53.055Z,4.53
2023-03-26T01:19:26.938Z,3.90
2023-03-26T01:21:55.084Z,4.28
2023-03-26T01:24:24.454Z,4.57
2023-03-26T01:27:06.025Z,5.15
2023-03-26T01:29:42.933Z,4.78
2023-03-26T01:32:23.248Z,4.00
2023-03-26T01:35:06.345Z,4.68
2023-03-26T01:37:41.557Z,3.10
2023-03-26T01:40:18.695Z,3.75
2023-03-26T01:42:53.205Z,3.58
2023-03-26T01:45:25.693Z,4.82
2023-03-26T01:47:54.618Z,4.90
2023-03-26T01:50:22.740Z,6.88
2023-03-26T01:52:50.925Z,5.88
2023-03-26T01:55:20.878Z,4.78
2023-03-26T01:57:56.881Z,5.47
2023-03-26T02:00:31.070Z,5.05
2023-03-26T02:03:23.714Z,4.90
2023-03-26T02:05:58.669Z,4.75
2023-03-26T02:08:35.772Z,5.45
2023-03-26T02:11:11.545Z,6.55
2023-03-26T02:13:40.556Z,5.10
2023-03-26T02:16:11.839Z,5.07
2023-03-26T02:18:39.987Z,5.10
2023-03-26T02:21:12.350Z,5.50
2023-03-26T02:23:46.896Z,5.10
2023-03-26T02:26:18.872Z,4.47
2023-03-26T02:28:58.757Z,5.50
2023-03-26T02:31:27.327Z,5.80
2023-03-26T02:33:56.691Z,5.22
2023-03-26T02:36:27.339Z,4.93
2023-03-26T02:39:00.323Z,5.15
2023-03-26T02:41:32.420Z,4.50
2023-03-26T02:44:04.920Z,4.20
2023-03-26T02:46:51.827Z,4.05
2023-03-26T02:49:38.388Z,4.70
2023-03-26T02:52:07.393Z,4.88
2023-03-26T02:54:37.136Z,4.95
2023-03-26T02:57:25.883Z,4.20
2023-03-26T03:00:23.653Z,4.70
2023-03-26T03:03:11.852Z,3.85
2023-03-26T03:05:59.096Z,5.05
2023-03-26T03:08:34.667Z,4.00
2023-03-26T03:11:24.765Z,3.75
2023-03-26T03:13:55.504Z,4.20
2023-03-26T03:16:26.594Z,3.75
2023-03-26T03:18:58.173Z,3.90
2023-03-26T03:21:37.852Z,4.25
2023-03-26T03:24:07.252Z,3.67
2023-03-26T03:26:38.781Z,4.15
2023-03-26T03:29:34.096Z,3.65
2023-03-26T03:32:31.043Z,4.00
2023-03-26T03:35:03.040Z,4.03
2023-03-26T03:37:31.336Z,4.03
2023-03-26T03:40:00.597Z,3.60
2023-03-26T03:42:32.296Z,4.18
2023-03-26T03:45:06.491Z,3.55
2023-03-26T03:48:04.767Z,3.45
2023-03-26T03:50:42.179Z,3.70
2023-03-26T03:53:26.092Z,4.68
2023-03-26T03:55:56.162Z,3.95
2023-03-26T04:01:08.336Z,3.33
2023-03-26T04:03:54.795Z,3.63
2023-03-26T04:06:26.688Z,3.50
2023-03-26T04:08:55.357Z,3.65
2023-03-26T04:11:23.702Z,4.10
2023-03-26T04:14:14.413Z,3.78
2023-03-26T04:17:13.637Z,3.33
2023-03-26T04:19:42.113Z,3.13
2023-03-26T04:22:11.943Z,3.30
2023-03-26T04:25:02.431Z,3.80
2023-03-26T04:27:55.741Z,3.45
2023-03-26T04:30:44.964Z,3.60
2023-03-26T04:33:31.696Z,3.67
2023-03-26T04:36:03.239Z,3.42
2023-03-26T04:38:41.470Z,3.95
2023-03-26T04:41:12.795Z,4.78
2023-03-26T04:43:50.774Z,3.53
2023-03-26T04:46:25.692Z,4.18
2023-03-26T04:49:06.544Z,3.97
2023-03-26T04:51:39.494Z,4.07
2023-03-26T04:54:21.704Z,3.40
2023-03-26T04:56:59.766Z,3.83
2023-03-26T04:59:37.218Z,3.88
2023-03-26T05:02:09.658Z,4.15
2023-03-26T05:04:50.514Z,3.75
2023-03-26T05:07:22.445Z,4.13
2023-03-26T05:09:53.872Z,3.95
2023-03-26T05:12:41.597Z,4.28
2023-03-26T05:15:14.277Z,4.40
2023-03-26T05:18:00.887Z,3.95
2023-03-26T05:20:38.788Z,4.10
2023-03-26T05:23:09.310Z,3.28
2023-03-26T05:25:39.659Z,3.65
2023-03-26T05:28:15.979Z,4.57
2023-03-26T05:30:54.591Z,3.75
2023-03-26T05:33:25.429Z,3.25
2023-03-26T05:36:21.400Z,3.35
2023-03-26T05:38:58.231Z,4.47
2023-03-26T05:41:50.077Z,4.13
2023-03-26T05:44:19.624Z,3.95
2023-03-26T05:46:47.792Z,4.22
2023-03-26T05:49:22.242Z,4.95
2023-03-26T05:51:53.238Z,4.80
2023-03-26T05:54:36.278Z,4.47
2023-03-26T05:57:23.967Z,5.25
2023-03-26T06:00:12.346Z,5.93
2023-03-26T06:02:46.949Z,5.47
2023-03-26T06:05:50.391Z,5.20
2023-03-26T06:08:23.720Z,5.05
2023-03-26T06:10:59.793Z,4.22
2023-03-26T06:13:30.588Z,4.32
2023-03-26T06:15:59.099Z,5.88
2023-03-26T06:18:38.803Z,4.32
2023-03-26T06:21:29.255Z,4.63
2023-03-26T06:24:03.713Z,4.72
2023-03-26T06:26:45.197Z,4.70
2023-03-26T06:29:39.308Z,5.57
2023-03-26T06:32:27.142Z,5.18
2023-03-26T06:35:01.061Z,4.78
2023-03-26T06:37:29.718Z,5.38
2023-03-26T06:40:03.206Z,5.18
2023-03-26T06:43:09.892Z,6.28
2023-03-26T06:45:52.098Z,6.85
2023-03-26T06:48:35.584Z,8.63
2023-03-26T06:51:18.668Z,9.32
2023-03-26T06:54:05.895Z,8.10
2023-03-26T06:56:56.313Z,7.53
2023-03-26T06:59:36.612Z,8.95
2023-03-26T07:02:23.340Z,11.93
2023-03-26T07:05:26.565Z,11.57
2023-03-26T07:08:22.918Z,10.85
2023-03-26T07:11:11.250Z,11.73
2023-03-26T07:13:57.316Z,9.65
2023-03-26T07:16:46.668Z,9.95
2023-03-26T07:19:37.677Z,9.63
2023-03-26T07:22:06.736Z,10.23
2023-03-26T07:24:54.206Z,9.32
2023-03-26T07:27:53.526Z,7.93
2023-03-26T07:30:43.175Z,9.50
2023-03-26T07:33:31.922Z,10.23
2023-03-26T07:36:25.065Z,8.23
2023-03-26T07:39:34.160Z,6.63
2023-03-26T07:42:41.511Z,5.97
2023-03-26T07:45:39.636Z,8.70
2023-03-26T07:48:25.567Z,6.30
2023-03-26T07:51:09.743Z,8.60
2023-03-26T07:53:52.726Z,6.50
2023-03-26T07:56:44.237Z,7.75
2023-03-26T07:59:35.597Z,6.72
2023-03-26T08:02:43.148Z,8.27
2023-03-26T08:05:54.198Z,7.03
2023-03-26T08:08:40.778Z,7.88
2023-03-26T08:11:40.388Z,8.43
2023-03-26T08:14:22.763Z,5.65
2023-03-26T08:16:56.071Z,6.40
2023-03-26T08:19:42.341Z,5.85
2023-03-26T08:22:16.897Z,5.47
2023-03-26T08:24:57.317Z,5.32
2023-03-26T08:27:37.744Z,5.03
2023-03-26T08:30:11.931Z,5.30
2023-03-26T08:32:40.993Z,5.03
2023-03-26T08:35:14.500Z,5.80
2023-03-26T08:37:45.422Z,6.65
2023-03-26T08:40:19.741Z,5.28
2023-03-26T08:43:18.785Z,6.22
2023-03-26T08:46:12.421Z,5.75
2023-03-26T08:49:04.437Z,6.60
2023-03-26T08:52:10.866Z,5.50
2023-03-26T08:55:04.322Z,6.47
2023-03-26T08:57:54.623Z,7.05
2023-03-26T09:00:41.529Z,5.50
2023-03-26T09:03:37.080Z,6.28
2023-03-26T09:06:41.667Z,6.78
2023-03-26T09:09:30.097Z,7.68
2023-03-26T09:12:44.546Z,6.20
2023-03-26T09:15:46.990Z,6.78
2023-03-26T09:18:59.461Z,7.55
2023-03-26T09:21:43.116Z,5.07
2023-03-26T09:25:02.565Z,5.68
2023-03-26T09:27:40.911Z,5.65
2023-03-26T09:30:38.568Z,5.50
2023-03-26T09:33:29.148Z,5.47
2023-03-26T09:36:16.782Z,6.45
2023-03-26T09:38:46.249Z,4.78
2023-03-26T09:41:19.319Z,5.68
2023-03-26T09:44:31.891Z,5.95
2023-03-26T09:47:23.434Z,7.30
2023-03-26T09:50:00.571Z,5.93
2023-03-26T09:52:50.382Z,6.75
2023-03-26T09:55:35.738Z,5.70
2023-03-26T09:58:22.912Z,5.68
2023-03-26T10:01:05.522Z,5.07
2023-03-26T10:03:53.111Z,7.53
2023-03-26T10:06:34.448Z,6.05
2023-03-26T10:09:21.993Z,5.93
2023-03-26T10:12:02.902Z,6.75
2023-03-26T10:14:39.958Z,6.28
2023-03-26T10:17:26.469Z,5.90
2023-03-26T10:20:09.587Z,5.85
2023-03-26T10:22:47.792Z,8.02
2023-03-26T10:25:37.913Z,6.45
2023-03-26T10:28:27.241Z,6.45
2023-03-26T10:31:19.608Z,6.32
2023-03-26T10:34:01.614Z,6.80
2023-03-26T10:36:34.138Z,6.65
2023-03-26T10:39:37.666Z,5.10
2023-03-26T10:42:41.709Z,5.03
2023-03-26T10:45:32.462Z,6.38
2023-03-26T10:48:18.213Z,5.43
2023-03-26T10:51:18.892Z,5.35
2023-03-26T10:53:53.227Z,5.40
2023-03-26T10:56:26.681Z,4.53
2023-03-26T10:58:56.925Z,6.07
2023-03-26T11:01:37.205Z,5.00
2023-03-26T11:04:19.725Z,3.92
2023-03-26T11:06:55.738Z,4.47
2023-03-26T11:09:34.821Z,4.18
2023-03-26T11:12:26.868Z,4.72
2023-03-26T11:15:12.932Z,4.68
2023-03-26T11:17:50.797Z,4.53
2023-03-26T11:20:26.321Z,4.03
2023-03-26T11:23:13.584Z,4.00
2023-03-26T11:26:08.370Z,4.07
2023-03-26T11:29:03.764Z,4.65
2023-03-26T11:32:02.243Z,4.13
2023-03-26T11:34:37.124Z,4.53
2023-03-26T11:37:09.471Z,5.55
2023-03-26T11:39:47.437Z,3.95
2023-03-26T11:42:19.313Z,4.68
2023-03-26T11:44:54.265Z,4.05
2023-03-26T11:47:25.997Z,4.30
2023-03-26T11:49:58.748Z,4.78
2023-03-26T11:52:27.646Z,4.28
2023-03-26T11:54:58.531Z,4.60
2023-03-26T11:57:31.213Z,4.45
2023-03-26T12:00:08.335Z,3.97
2023-03-26T12:02:41.948Z,4.35
2023-03-26T12:05:18.095Z,4.35
2023-03-26T12:07:51.336Z,4.75
2023-03-26T12:10:29.507Z,4.22
2023-03-26T12:13:01.555Z,5.05
2023-03-26T12:15:32.101Z,4.25
2023-03-26T12:18:18.866Z,5.53
2023-03-26T12:20:48.220Z,4.82
2023-03-26T12:23:37.699Z,5.40
2023-03-26T12:26:15.171Z,4.85
2023-03-26T12:28:50.474Z,3.63
2023-03-26T12:31:21.543Z,5.32
2023-03-26T12:34:10.231Z,4.20
2023-03-26T12:36:39.141Z,5.57
2023-03-26T12:40:07.250Z,4.80
2023-03-26T12:44:49.265Z,4.30
2023-03-26T12:45:25.611Z,3.92
2023-03-26T12:48:04.104Z,4.78
2023-03-26T12:50:50.660Z,5.28
2023-03-26T12:53:34.835Z,4.25
2023-03-26T12:56:15.564Z,4.82
2023-03-26T12:59:21.834Z,5.65
2023-03-26T13:02:01.327Z,4.03
2023-03-26T13:05:02.250Z,3.97
2023-03-26T13:07:48.433Z,4.95
2023-03-26T13:10:46.409Z,3.95
2023-03-26T13:13:34.995Z,4.00
2023-03-26T13:16:10.611Z,4.65
2023-03-26T13:18:48.601Z,4.90
2023-03-26T13:21:26.727Z,5.25
2023-03-26T13:24:03.520Z,4.75
2023-03-26T13:26:47.551Z,5.15
2023-03-26T13:29:27.037Z,4.60
2023-03-26T13:32:05.030Z,4.20
2023-03-26T13:34:42.543Z,4.13
2023-03-26T13:37:18.793Z,3.83
2023-03-26T13:39:57.131Z,3.40
2023-03-26T13:42:37.958Z,2.75
2023-03-26T13:45:18.315Z,2.90
2023-03-26T13:47:51.060Z,3.65
2023-03-26T13:50:26.172Z,3.72
2023-03-26T13:52:59.065Z,3.20
2023-03-26T13:55:30.847Z,3.08
2023-03-26T13:58:05.077Z,3.70
2023-03-26T14:00:48.841Z,2.78
2023-03-26T14:03:22.774Z,3.47
2023-03-26T14:05:56.978Z,3.60
2023-03-26T14:08:32.984Z,2.78
2023-03-26T14:11:10.748Z,2.47
2023-03-26T14:13:46.192Z,2.80
2023-03-26T14:16:19.289Z,3.05
2023-03-26T14:18:53.674Z,2.85
2023-03-26T14:21:51.848Z,3.30
2023-03-26T14:24:46.108Z,2.85
2023-03-26T14:27:34.163Z,2.92
2023-03-26T14:30:44.134Z,2.58
2023-03-26T14:33:34.202Z,2.60
2023-03-26T14:36:11.363Z,2.58
2023-03-26T14:39:06.546Z,3.30
2023-03-26T14:41:43.304Z,2.72
2023-03-26T14:44:48.184Z,2.95
2023-03-26T14:47:20.118Z,2.50
2023-03-26T14:50:09.719Z,2.63
2023-03-26T14:52:47.820Z,2.40
2023-03-26T14:55:30.038Z,2.58
2023-03-26T14:58:18.319Z,2.53
2023-03-26T15:01:16.000Z,2.35
2023-03-26T15:04:20.562Z,2.35
2023-03-26T15:07:18.903Z,2.70
2023-03-26T15:10:32.220Z,2.50
2023-03-26T15:13:32.577Z,2.28
2023-03-26T15:16:14.609Z,2.17
2023-03-26T15:19:25.643Z,2.35
2023-03-26T15:22:38.906Z,2.38
2023-03-26T15:25:49.092Z,2.20
2023-03-26T15:28:44.422Z,3.30
2023-03-26T15:31:37.312Z,2.30
2023-03-26T15:34:44.045Z,2.38
2023-03-26T15:37:41.713Z,2.03
2023-03-26T15:40:40.487Z,2.10
2023-03-26T15:43:12.986Z,1.95
2023-03-26T15:45:44.859Z,2.08
2023-03-26T15:48:30.086Z,2.38
2023-03-26T15:51:08.920Z,2.20
2023-03-26T15:53:44.807Z,2.40
2023-03-26T15:56:27.908Z,2.47
2023-03-26T15:59:07.292Z,2.45
2023-03-26T16:02:03.951Z,2.33
2023-03-26T16:04:50.723Z,2.15
2023-03-26T16:07:44.264Z,2.10
2023-03-26T16:10:29.274Z,2.13
2023-03-26T16:13:24.937Z,2.72
2023-03-26T16:15:57.992Z,2.35
2023-03-26T16:18:35.950Z,2.40
2023-03-26T16:21:41.177Z,2.92
2023-03-26T16:24:30.510Z,3.03
2023-03-26T16:27:35.063Z,2.70
2023-03-26T16:30:30.336Z,2.33
2023-03-26T16:33:10.454Z,2.72
2023-03-26T16:36:18.418Z,2.30
2023-03-26T16:38:50.385Z,2.33
2023-03-26T16:41:20.417Z,2.03
2023-03-26T16:43:56.696Z,2.03
2023-03-26T16:46:38.384Z,2.28
2023-03-26T16:49:21.031Z,2.38
2023-03-26T16:52:09.665Z,2.90
2023-03-26T16:54:46.038Z,2.20
2023-03-26T16:57:30.558Z,1.73
2023-03-26T17:00:24.591Z,2.10
2023-03-26T17:03:00.013Z,2.22
2023-03-26T17:05:37.338Z,2.08
2023-03-26T17:08:19.099Z,3.03
2023-03-26T17:11:18.087Z,2.22
2023-03-26T17:13:52.637Z,2.55
2023-03-26T17:16:25.910Z,2.45
2023-03-26T17:19:04.311Z,2.53
2023-03-26T17:21:46.172Z,1.95
2023-03-26T17:24:28.698Z,2.38
2023-03-26T17:27:30.990Z,2.00
2023-03-26T17:30:11.213Z,2.28
2023-03-26T17:32:56.482Z,2.13
2023-03-26T17:35:40.636Z,2.40
2023-03-26T17:38:45.561Z,2.42
2023-03-26T17:41:36.766Z,2.33
2023-03-26T17:44:28.121Z,2.20
2023-03-26T17:46:58.272Z,2.40
2023-03-26T17:49:31.173Z,2.92
2023-03-26T17:52:02.115Z,2.67
2023-03-26T17:54:34.009Z,2.30
2023-03-26T17:57:07.798Z,2.38
2023-03-26T17:59:39.302Z,1.90
2023-03-26T18:02:15.374Z,1.95
2023-03-26T18:04:48.289Z,3.00
2023-03-26T18:07:49.949Z,2.38
2023-03-26T18:10:33.351Z,3.00
2023-03-26T18:13:20.504Z,1.95
2023-03-26T18:15:56.869Z,1.85
2023-03-26T18:18:32.778Z,1.90
2023-03-26T18:21:07.158Z,1.83
2023-03-26T18:23:38.908Z,2.40
2023-03-26T18:26:14.834Z,1.90
2023-03-26T18:28:46.454Z,2.25
2023-03-26T18:31:19.727Z,2.13
2023-03-26T18:33:49.956Z,2.20
2023-03-26T18:36:19.185Z,2.33
2023-03-26T18:38:48.809Z,2.08
2023-03-26T18:41:27.259Z,1.80
2023-03-26T18:44:01.985Z,1.48
2023-03-26T18:46:30.517Z,3.17
2023-03-26T18:48:59.990Z,2.38
2023-03-26T18:51:29.474Z,2.53
2023-03-26T18:54:01.844Z,1.90
2023-03-26T18:56:33.791Z,2.20
2023-03-26T18:59:05.875Z,2.05
2023-03-26T19:01:37.606Z,2.45
2023-03-26T19:04:09.355Z,2.00
2023-03-26T19:06:43.551Z,1.98
2023-03-26T19:09:30.456Z,2.15
2023-03-26T19:12:06.897Z,1.90
2023-03-26T19:14:52.045Z,1.63
2023-03-26T19:17:20.314Z,2.13
2023-03-26T19:19:50.666Z,2.00
2023-03-26T19:22:20.564Z,1.45
2023-03-26T19:24:48.944Z,1.50
2023-03-26T19:27:17.125Z,1.90
2023-03-26T19:29:47.769Z,2.03
2023-03-26T19:32:19.122Z,2.50
2023-03-26T19:34:49.289Z,2.08
2023-03-26T19:37:23.022Z,2.47
2023-03-26T19:39:52.878Z,1.85
2023-03-26T19:42:26.672Z,1.98
2023-03-26T19:44:59.409Z,2.22
2023-03-26T19:47:46.083Z,1.88
2023-03-26T19:50:26.092Z,2.25
2023-03-26T19:53:17.674Z,2.05
2023-03-26T19:55:57.404Z,2.08
2023-03-26T19:58:27.209Z,2.22
2023-03-26T20:00:57.126Z,2.00
2023-03-26T20:03:29.587Z,2.05
2023-03-26T20:05:58.081Z,2.05
2023-03-26T20:08:27.941Z,2.10
2023-03-26T20:10:58.503Z,2.13
2023-03-26T20:13:27.041Z,2.40
2023-03-26T20:16:05.541Z,2.10
2023-03-26T20:18:34.762Z,2.33
2023-03-26T20:21:03.122Z,2.10
2023-03-26T20:23:31.118Z,2.15
2023-03-26T20:25:59.163Z,2.30
2023-03-26T20:28:27.179Z,2.47
2023-03-26T20:30:56.992Z,2.10
2023-03-26T20:33:27.107Z,2.55
2023-03-26T20:35:57.130Z,2.53
2023-03-26T20:38:39.238Z,2.13
2023-03-26T20:41:10.770Z,2.45
2023-03-26T20:43:38.908Z,2.35
2023-03-26T20:46:11.573Z,2.03
2023-03-26T20:48:39.738Z,2.00
2023-03-26T20:51:07.963Z,2.35
2023-03-26T20:53:36.106Z,2.53
2023-03-26T20:56:04.375Z,2.28
2023-03-26T20:58:32.594Z,2.33
2023-03-26T21:01:02.602Z,1.98
2023-03-26T21:03:32.334Z,2.25
2023-03-26T21:06:01.970Z,2.58
2023-03-26T21:08:35.406Z,2.30
2023-03-26T21:13:40.218Z,2.00
2023-03-26T21:16:11.079Z,2.65
2023-03-26T21:18:41.925Z,2.60
2023-03-26T21:21:28.078Z,2.40
2023-03-26T21:24:05.111Z,3.10
2023-03-26T21:26:41.572Z,2.88
2023-03-26T21:29:11.806Z,2.10
2023-03-26T21:31:40.488Z,2.40
2023-03-26T21:34:13.323Z,2.20
2023-03-26T21:36:42.181Z,2.35
2023-03-26T21:39:11.776Z,2.10
2023-03-26T21:41:45.818Z,2.00
2023-03-26T21:44:15.285Z,2.60
2023-03-26T21:46:44.243Z,2.67
2023-03-26T21:49:16.113Z,2.13
2023-03-26T21:51:45.049Z,2.15
2023-03-26T21:54:22.719Z,2.33
2023-03-26T21:57:01.951Z,1.85
2023-03-26T21:59:40.976Z,2.00
2023-03-26T22:02:18.553Z,1.90
2023-03-26T22:04:52.974Z,2.03
2023-03-26T22:07:27.548Z,2.00
2023-03-26T22:09:56.331Z,1.83
2023-03-26T22:12:25.638Z,2.10
2023-03-26T22:14:53.856Z,1.88
2023-03-26T22:17:23.249Z,1.80
2023-03-26T22:19:52.620Z,2.28
2023-03-26T22:22:22.119Z,1.85
2023-03-26T22:24:50.188Z,1.95
2023-03-26T22:27:18.443Z,2.28
2023-03-26T22:29:46.563Z,1.90
2023-03-26T22:32:14.612Z,2.15
2023-03-26T22:34:45.146Z,2.25
2023-03-26T22:37:16.222Z,1.70
2023-03-26T22:39:44.392Z,2.30
2023-03-26T22:42:12.382Z,1.60
2023-03-26T22:44:40.883Z,1.48
2023-03-26T22:47:09.603Z,1.95
2023-03-26T22:49:37.603Z,2.15
2023-03-26T22:52:06.058Z,1.50
2023-03-26T22:54:36.533Z,2.20
2023-03-26T22:57:04.872Z,2.17
2023-03-26T22:59:32.998Z,1.50
2023-03-26T23:02:01.341Z,1.92
2023-03-26T23:04:32.259Z,1.83
2023-03-26T23:07:00.850Z,1.80
2023-03-26T23:09:29.598Z,2.30
2023-03-26T23:11:59.066Z,1.88
2023-03-26T23:14:28.674Z,2.00
2023-03-26T23:16:57.201Z,1.50
2023-03-26T23:19:25.790Z,1.70
2023-03-26T23:21:53.826Z,1.40
2023-03-26T23:24:21.967Z,2.05
2023-03-26T23:26:51.275Z,1.50
2023-03-26T23:29:21.150Z,1.83
2023-03-26T23:31:49.426Z,2.13
2023-03-26T23:34:18.570Z,1.50
2023-03-26T23:36:47.021Z,1.88
2023-03-26T23:39:15.971Z,1.90
2023-03-26T23:41:44.105Z,2.03
2023-03-26T23:44:14.509Z,1.98
2023-03-26T23:46:44.256Z,1.90
2023-03-26T23:49:13.715Z,1.70
2023-03-26T23:51:42.177Z,2.00
2023-03-26T23:54:11.654Z,2.05
2023-03-26T23:56:39.751Z,2.40
2023-03-26T23:59:08.483Z,2.10
